JBU527 KSYR-KMCO
Flight info
| Callsign | JBU527 |
|---|---|
| Flight time | 2h 38m |
| Altitude | 34000 |
| Route | SYR2 EXTOL J59 PSB Q71 EMNEM Q103 SLOJO DCT EFFAY Q83 ROYCO Q85 LPERD GTOUT1 |
| Aircraft | A20N/M-SDE2E3FGHIRWXY/LB1 |
Departure
| Time | 2026-05-07 02:32 |
|---|---|
| Airport | Syracuse Hancock International Airport (KSYR) |
Arrival
| Time | 2026-05-07 05:10 |
|---|---|
| Airport | Orlando International Airport (KMCO) |
| Time | Latitude | Longitude | Altitude | Speed | Heading |
|---|---|---|---|---|---|
| 2026-05-07 02:15 | 43.11257 | -76.11005 | 427 ft | 0 kts | 358° |
| 2026-05-07 02:24 | 43.11243 | -76.11004 | 416 ft | 2 kts | 359° |
| 2026-05-07 02:24 | 43.11226 | -76.11004 | 421 ft | 2 kts | 1° |
| 2026-05-07 02:25 | 43.11210 | -76.11006 | 423 ft | 2 kts | 12° |
| 2026-05-07 02:25 | 43.11196 | -76.11017 | 425 ft | 2 kts | 71° |
| 2026-05-07 02:25 | 43.11195 | -76.11028 | 417 ft | 0 kts | 85° |
| 2026-05-07 02:27 | 43.11195 | -76.11023 | 416 ft | 2 kts | 86° |
| 2026-05-07 02:27 | 43.11197 | -76.10969 | 422 ft | 8 kts | 88° |
| 2026-05-07 02:27 | 43.11198 | -76.10869 | 431 ft | 12 kts | 87° |
| 2026-05-07 02:27 | 43.11197 | -76.10755 | 427 ft | 12 kts | 112° |
| 2026-05-07 02:28 | 43.11125 | -76.10721 | 427 ft | 11 kts | 176° |
| 2026-05-07 02:28 | 43.11048 | -76.10716 | 426 ft | 11 kts | 169° |
| 2026-05-07 02:28 | 43.11010 | -76.10652 | 428 ft | 9 kts | 96° |
| 2026-05-07 02:28 | 43.11011 | -76.10563 | 432 ft | 12 kts | 88° |
| 2026-05-07 02:29 | 43.11016 | -76.10413 | 422 ft | 20 kts | 87° |
| 2026-05-07 02:29 | 43.11024 | -76.10208 | 427 ft | 22 kts | 88° |
| 2026-05-07 02:29 | 43.11030 | -76.10002 | 417 ft | 22 kts | 86° |
| 2026-05-07 02:29 | 43.11038 | -76.09800 | 428 ft | 20 kts | 86° |
| 2026-05-07 02:30 | 43.11043 | -76.09622 | 432 ft | 18 kts | 87° |
| 2026-05-07 02:30 | 43.11048 | -76.09459 | 426 ft | 17 kts | 87° |
| 2026-05-07 02:30 | 43.11049 | -76.09305 | 431 ft | 15 kts | 107° |
| 2026-05-07 02:30 | 43.10967 | -76.09263 | 429 ft | 12 kts | 187° |
| 2026-05-07 02:31 | 43.10928 | -76.09359 | 426 ft | 18 kts | 266° |
| 2026-05-07 02:31 | 43.10913 | -76.09796 | 424 ft | 78 kts | 267° |
| 2026-05-07 02:31 | 43.10879 | -76.10822 | 432 ft | 140 kts | 268° |
| 2026-05-07 02:31 | 43.10822 | -76.12343 | 661 ft | 167 kts | 266° |
| 2026-05-07 02:32 | 43.10774 | -76.13866 | 1459 ft | 157 kts | 268° |
| 2026-05-07 02:32 | 43.10739 | -76.15446 | 1891 ft | 179 kts | 269° |
| 2026-05-07 02:32 | 43.10699 | -76.17269 | 2219 ft | 206 kts | 269° |
| 2026-05-07 02:32 | 43.10648 | -76.19382 | 2522 ft | 235 kts | 269° |
| 2026-05-07 02:33 | 43.10587 | -76.21662 | 3289 ft | 242 kts | 269° |
| 2026-05-07 02:33 | 43.10522 | -76.23972 | 4167 ft | 245 kts | 269° |
| 2026-05-07 02:33 | 43.10293 | -76.26262 | 4992 ft | 249 kts | 255° |
| 2026-05-07 02:33 | 43.09548 | -76.28408 | 5871 ft | 253 kts | 234° |
| 2026-05-07 02:34 | 43.08301 | -76.30123 | 6795 ft | 256 kts | 221° |
| 2026-05-07 02:34 | 43.06834 | -76.31526 | 7662 ft | 260 kts | 215° |
| 2026-05-07 02:34 | 43.05247 | -76.32748 | 8532 ft | 263 kts | 212° |
| 2026-05-07 02:34 | 43.03606 | -76.33892 | 9415 ft | 267 kts | 212° |
| 2026-05-07 02:35 | 43.01932 | -76.35035 | 10245 ft | 271 kts | 212° |
| 2026-05-07 02:35 | 43.00200 | -76.36245 | 10664 ft | 290 kts | 213° |
| 2026-05-07 02:35 | 42.98378 | -76.37563 | 10987 ft | 310 kts | 213° |
| 2026-05-07 02:35 | 42.96433 | -76.39000 | 11460 ft | 324 kts | 213° |
| 2026-05-07 02:36 | 42.94443 | -76.40480 | 12251 ft | 326 kts | 213° |
| 2026-05-07 02:36 | 42.92452 | -76.41964 | 13184 ft | 326 kts | 214° |
| 2026-05-07 02:36 | 42.90467 | -76.43443 | 14090 ft | 325 kts | 214° |
| 2026-05-07 02:36 | 42.88477 | -76.44929 | 14776 ft | 329 kts | 214° |
| 2026-05-07 02:37 | 42.86460 | -76.46440 | 15437 ft | 333 kts | 214° |
| 2026-05-07 02:37 | 42.84414 | -76.47971 | 16124 ft | 337 kts | 214° |
| 2026-05-07 02:37 | 42.82352 | -76.49512 | 16831 ft | 340 kts | 214° |
| 2026-05-07 02:37 | 42.80271 | -76.51064 | 17520 ft | 343 kts | 214° |
| 2026-05-07 02:38 | 42.78198 | -76.52609 | 18171 ft | 346 kts | 214° |
| 2026-05-07 02:38 | 42.76079 | -76.54186 | 18760 ft | 348 kts | 215° |
| 2026-05-07 02:38 | 42.73945 | -76.55772 | 19378 ft | 350 kts | 215° |
| 2026-05-07 02:38 | 42.71806 | -76.57360 | 19989 ft | 351 kts | 215° |
| 2026-05-07 02:39 | 42.69654 | -76.58957 | 20574 ft | 353 kts | 215° |
| 2026-05-07 02:39 | 42.67491 | -76.60563 | 21155 ft | 355 kts | 216° |
| 2026-05-07 02:39 | 42.65323 | -76.62196 | 21745 ft | 356 kts | 217° |
| 2026-05-07 02:39 | 42.63176 | -76.63891 | 22330 ft | 357 kts | 218° |
| 2026-05-07 02:40 | 42.61038 | -76.65624 | 22915 ft | 358 kts | 218° |
| 2026-05-07 02:40 | 42.58929 | -76.67353 | 23489 ft | 359 kts | 219° |
| 2026-05-07 02:40 | 42.56790 | -76.69110 | 23949 ft | 360 kts | 219° |
| 2026-05-07 02:40 | 42.54643 | -76.70869 | 24415 ft | 361 kts | 219° |
| 2026-05-07 02:41 | 42.52487 | -76.72628 | 24892 ft | 361 kts | 220° |
| 2026-05-07 02:41 | 42.50334 | -76.74377 | 25374 ft | 361 kts | 220° |
| 2026-05-07 02:41 | 42.48180 | -76.76122 | 25817 ft | 361 kts | 220° |
| 2026-05-07 02:41 | 42.46022 | -76.77869 | 26246 ft | 362 kts | 221° |
| 2026-05-07 02:42 | 42.43856 | -76.79623 | 26644 ft | 363 kts | 221° |
| 2026-05-07 02:42 | 42.41686 | -76.81378 | 27040 ft | 364 kts | 221° |
| 2026-05-07 02:42 | 42.39536 | -76.83115 | 27422 ft | 365 kts | 221° |
| 2026-05-07 02:42 | 42.37355 | -76.84875 | 27831 ft | 366 kts | 221° |
| 2026-05-07 02:43 | 42.35163 | -76.86643 | 28196 ft | 367 kts | 221° |
| 2026-05-07 02:43 | 42.32971 | -76.88408 | 28535 ft | 368 kts | 222° |
| 2026-05-07 02:43 | 42.30771 | -76.90177 | 28924 ft | 367 kts | 222° |
| 2026-05-07 02:43 | 42.28581 | -76.91933 | 29469 ft | 364 kts | 222° |
| 2026-05-07 02:44 | 42.26415 | -76.93664 | 30044 ft | 360 kts | 223° |
| 2026-05-07 02:44 | 42.24266 | -76.95383 | 30483 ft | 358 kts | 223° |
| 2026-05-07 02:44 | 42.22132 | -76.97093 | 30852 ft | 356 kts | 223° |
| 2026-05-07 02:44 | 42.20005 | -76.98799 | 31208 ft | 355 kts | 224° |
| 2026-05-07 02:45 | 42.17917 | -77.00474 | 31553 ft | 354 kts | 224° |
| 2026-05-07 02:45 | 42.15803 | -77.02167 | 31916 ft | 352 kts | 224° |
| 2026-05-07 02:45 | 42.13702 | -77.03846 | 32302 ft | 351 kts | 224° |
| 2026-05-07 02:45 | 42.11608 | -77.05517 | 32611 ft | 349 kts | 225° |
| 2026-05-07 02:46 | 42.09520 | -77.07184 | 32923 ft | 348 kts | 225° |
| 2026-05-07 02:46 | 42.07440 | -77.08844 | 33226 ft | 347 kts | 225° |
| 2026-05-07 02:46 | 42.05366 | -77.10498 | 33563 ft | 345 kts | 225° |
| 2026-05-07 02:46 | 42.03304 | -77.12141 | 33858 ft | 345 kts | 225° |
| 2026-05-07 02:47 | 41.99167 | -77.15438 | 33943 ft | 345 kts | 225° |
| 2026-05-07 02:47 | 41.95079 | -77.18681 | 33955 ft | 343 kts | 225° |
| 2026-05-07 02:48 | 41.90974 | -77.21938 | 33957 ft | 342 kts | 225° |
| 2026-05-07 02:48 | 41.86871 | -77.25190 | 33961 ft | 342 kts | 225° |
| 2026-05-07 02:49 | 41.82767 | -77.28438 | 33959 ft | 343 kts | 225° |
| 2026-05-07 02:49 | 41.78686 | -77.31659 | 33958 ft | 343 kts | 226° |
| 2026-05-07 02:50 | 41.74572 | -77.34899 | 33969 ft | 343 kts | 225° |
| 2026-05-07 02:50 | 41.70461 | -77.38134 | 33965 ft | 343 kts | 225° |
| 2026-05-07 02:51 | 41.66351 | -77.41366 | 33955 ft | 343 kts | 225° |
| 2026-05-07 02:51 | 41.62232 | -77.44599 | 33951 ft | 343 kts | 225° |
| 2026-05-07 02:52 | 41.58141 | -77.47805 | 33968 ft | 344 kts | 225° |
| 2026-05-07 02:52 | 41.54019 | -77.51032 | 33968 ft | 344 kts | 225° |
| 2026-05-07 02:53 | 41.49885 | -77.54262 | 33960 ft | 345 kts | 225° |
| 2026-05-07 02:53 | 41.45745 | -77.57488 | 33962 ft | 345 kts | 225° |
| 2026-05-07 02:54 | 41.41603 | -77.60715 | 33958 ft | 345 kts | 225° |
| 2026-05-07 02:54 | 41.37494 | -77.63910 | 33959 ft | 345 kts | 225° |
| 2026-05-07 02:55 | 41.33352 | -77.67131 | 33958 ft | 345 kts | 225° |
| 2026-05-07 02:55 | 41.29204 | -77.70350 | 33970 ft | 346 kts | 225° |
| 2026-05-07 02:56 | 41.25040 | -77.73573 | 33952 ft | 346 kts | 225° |
| 2026-05-07 02:56 | 41.20873 | -77.76791 | 33958 ft | 347 kts | 225° |
| 2026-05-07 02:57 | 41.16731 | -77.79987 | 33959 ft | 347 kts | 225° |
| 2026-05-07 02:57 | 41.12560 | -77.83203 | 33953 ft | 347 kts | 225° |
| 2026-05-07 02:58 | 41.10468 | -77.84815 | 33960 ft | 0 kts | 0° |
| 2026-05-07 02:58 | 41.11061 | -77.84802 | 33886 ft | 335 kts | 335° |
| 2026-05-07 02:58 | 41.13294 | -77.85213 | 33242 ft | 325 kts | 326° |
| 2026-05-07 02:59 | 41.15952 | -77.84869 | 32148 ft | 433 kts | 358° |
| 2026-05-07 02:59 | 41.18890 | -77.83982 | 31328 ft | 436 kts | 345° |
| 2026-05-07 02:59 | 41.21819 | -77.84325 | 30760 ft | 412 kts | 326° |
| 2026-05-07 02:59 | 41.24303 | -77.85845 | 30713 ft | 379 kts | 308° |
| 2026-05-07 03:00 | 41.26093 | -77.88195 | 30851 ft | 349 kts | 291° |
| 2026-05-07 03:00 | 41.27042 | -77.91080 | 31109 ft | 327 kts | 274° |
| 2026-05-07 03:00 | 41.27060 | -77.93970 | 31459 ft | 317 kts | 258° |
| 2026-05-07 03:00 | 41.26193 | -77.96668 | 31817 ft | 324 kts | 242° |
| 2026-05-07 03:01 | 41.24527 | -77.98800 | 32146 ft | 347 kts | 225° |
| 2026-05-07 03:01 | 41.22242 | -78.00091 | 32417 ft | 381 kts | 210° |
| 2026-05-07 03:01 | 41.19472 | -78.00382 | 32663 ft | 419 kts | 194° |
| 2026-05-07 03:01 | 41.16515 | -77.99880 | 32920 ft | 437 kts | 188° |
| 2026-05-07 03:02 | 41.13510 | -77.99041 | 33185 ft | 445 kts | 185° |
| 2026-05-07 03:02 | 41.10492 | -77.98066 | 33455 ft | 448 kts | 184° |
| 2026-05-07 03:02 | 41.07473 | -77.97035 | 33659 ft | 449 kts | 184° |
| 2026-05-07 03:02 | 41.04450 | -77.96015 | 33900 ft | 444 kts | 186° |
| 2026-05-07 03:03 | 41.01471 | -77.95436 | 33963 ft | 420 kts | 196° |
| 2026-05-07 03:03 | 40.98658 | -77.95586 | 33962 ft | 391 kts | 206° |
| 2026-05-07 03:03 | 40.96092 | -77.96358 | 33966 ft | 369 kts | 215° |
| 2026-05-07 03:03 | 40.93796 | -77.97578 | 33972 ft | 351 kts | 223° |
| 2026-05-07 03:04 | 40.91794 | -77.99287 | 33967 ft | 335 kts | 231° |
| 2026-05-07 03:04 | 40.90112 | -78.01339 | 33973 ft | 325 kts | 238° |
| 2026-05-07 03:04 | 40.87163 | -78.05828 | 33969 ft | 322 kts | 240° |
| 2026-05-07 03:05 | 40.84295 | -78.10381 | 33970 ft | 323 kts | 240° |
| 2026-05-07 03:05 | 40.81386 | -78.14906 | 33966 ft | 323 kts | 239° |
| 2026-05-07 03:06 | 40.78464 | -78.19372 | 33970 ft | 324 kts | 239° |
| 2026-05-07 03:06 | 40.75511 | -78.23855 | 33961 ft | 324 kts | 239° |
| 2026-05-07 03:07 | 40.72555 | -78.28338 | 33977 ft | 324 kts | 239° |
| 2026-05-07 03:07 | 40.69598 | -78.32818 | 33974 ft | 324 kts | 239° |
| 2026-05-07 03:08 | 40.66663 | -78.37259 | 33955 ft | 324 kts | 239° |
| 2026-05-07 03:08 | 40.63702 | -78.41735 | 33959 ft | 324 kts | 239° |
| 2026-05-07 03:09 | 40.60737 | -78.46210 | 33964 ft | 324 kts | 239° |
| 2026-05-07 03:09 | 40.57770 | -78.50680 | 33962 ft | 324 kts | 239° |
| 2026-05-07 03:10 | 40.54808 | -78.55137 | 33970 ft | 323 kts | 239° |
| 2026-05-07 03:10 | 40.51867 | -78.59554 | 33964 ft | 323 kts | 239° |
| 2026-05-07 03:11 | 40.48909 | -78.63994 | 33974 ft | 323 kts | 239° |
| 2026-05-07 03:11 | 40.45951 | -78.68427 | 33966 ft | 323 kts | 239° |
| 2026-05-07 03:12 | 40.42991 | -78.72855 | 33973 ft | 323 kts | 239° |
| 2026-05-07 03:12 | 40.40048 | -78.77252 | 33972 ft | 322 kts | 239° |
| 2026-05-07 03:13 | 40.37093 | -78.81657 | 33973 ft | 321 kts | 239° |
| 2026-05-07 03:13 | 40.34142 | -78.86052 | 33974 ft | 321 kts | 239° |
| 2026-05-07 03:14 | 40.31194 | -78.90439 | 33969 ft | 321 kts | 239° |
| 2026-05-07 03:15 | 40.26782 | -78.96992 | 33966 ft | 321 kts | 239° |
| 2026-05-07 03:15 | 40.23825 | -79.01372 | 33970 ft | 320 kts | 239° |
| 2026-05-07 03:16 | 40.21374 | -79.04997 | 33966 ft | 320 kts | 239° |
| 2026-05-07 03:16 | 40.18431 | -79.09347 | 33968 ft | 319 kts | 239° |
| 2026-05-07 03:17 | 40.15007 | -79.14405 | 33985 ft | 320 kts | 239° |
| 2026-05-07 03:17 | 40.12081 | -79.18777 | 33992 ft | 319 kts | 239° |
| 2026-05-07 03:18 | 40.09671 | -79.22410 | 33986 ft | 318 kts | 239° |
| 2026-05-07 03:18 | 40.06778 | -79.26774 | 33987 ft | 318 kts | 239° |
| 2026-05-07 03:19 | 40.03882 | -79.31130 | 33991 ft | 318 kts | 239° |
| 2026-05-07 03:19 | 40.00986 | -79.35475 | 33994 ft | 317 kts | 239° |
| 2026-05-07 03:20 | 39.98107 | -79.39788 | 33995 ft | 317 kts | 239° |
| 2026-05-07 03:20 | 39.95215 | -79.44116 | 34000 ft | 316 kts | 239° |
| 2026-05-07 03:21 | 39.92324 | -79.48436 | 34002 ft | 316 kts | 239° |
| 2026-05-07 03:21 | 39.89433 | -79.52750 | 34002 ft | 316 kts | 239° |
| 2026-05-07 03:22 | 39.86542 | -79.57056 | 34006 ft | 316 kts | 239° |
| 2026-05-07 03:22 | 39.83649 | -79.61360 | 34003 ft | 316 kts | 239° |
| 2026-05-07 03:23 | 39.80777 | -79.65628 | 34001 ft | 315 kts | 239° |
| 2026-05-07 03:23 | 39.77885 | -79.69920 | 33996 ft | 315 kts | 239° |
| 2026-05-07 03:24 | 39.74989 | -79.74210 | 33998 ft | 316 kts | 239° |
| 2026-05-07 03:24 | 39.72091 | -79.78497 | 34001 ft | 316 kts | 239° |
| 2026-05-07 03:25 | 39.69214 | -79.82748 | 34008 ft | 315 kts | 239° |
| 2026-05-07 03:25 | 39.66317 | -79.87023 | 34006 ft | 315 kts | 239° |
| 2026-05-07 03:26 | 39.63423 | -79.91285 | 34006 ft | 315 kts | 239° |
| 2026-05-07 03:26 | 39.60531 | -79.95542 | 34013 ft | 314 kts | 239° |
| 2026-05-07 03:27 | 39.57659 | -79.99752 | 34006 ft | 315 kts | 238° |
| 2026-05-07 03:27 | 39.54318 | -80.03604 | 34008 ft | 331 kts | 229° |
| 2026-05-07 03:27 | 39.52319 | -80.05183 | 33990 ft | 343 kts | 223° |
| 2026-05-07 03:28 | 39.50084 | -80.06439 | 34004 ft | 358 kts | 216° |
| 2026-05-07 03:28 | 39.47624 | -80.07295 | 33995 ft | 376 kts | 209° |
| 2026-05-07 03:28 | 39.44962 | -80.07685 | 33996 ft | 392 kts | 202° |
| 2026-05-07 03:29 | 39.39434 | -80.07849 | 33996 ft | 401 kts | 199° |
| 2026-05-07 03:29 | 39.33888 | -80.07823 | 34001 ft | 401 kts | 199° |
| 2026-05-07 03:30 | 39.28319 | -80.07835 | 34000 ft | 400 kts | 200° |
| 2026-05-07 03:30 | 39.22761 | -80.07903 | 33995 ft | 399 kts | 200° |
| 2026-05-07 03:31 | 39.17214 | -80.07990 | 33991 ft | 399 kts | 200° |
| 2026-05-07 03:31 | 39.11713 | -80.08079 | 33991 ft | 398 kts | 199° |
| 2026-05-07 03:32 | 39.06163 | -80.08170 | 33968 ft | 399 kts | 199° |
| 2026-05-07 03:32 | 39.00608 | -80.08256 | 33973 ft | 399 kts | 199° |
| 2026-05-07 03:33 | 38.95051 | -80.08342 | 33970 ft | 399 kts | 200° |
| 2026-05-07 03:33 | 38.92329 | -80.08610 | 33972 ft | 385 kts | 206° |
| 2026-05-07 03:33 | 38.89782 | -80.09241 | 33969 ft | 375 kts | 210° |
| 2026-05-07 03:34 | 38.84744 | -80.10882 | 33967 ft | 372 kts | 211° |
| 2026-05-07 03:34 | 38.79758 | -80.12665 | 33969 ft | 372 kts | 212° |
| 2026-05-07 03:35 | 38.74762 | -80.14455 | 33973 ft | 374 kts | 211° |
| 2026-05-07 03:35 | 38.69739 | -80.16230 | 33969 ft | 375 kts | 211° |
| 2026-05-07 03:36 | 38.64726 | -80.17983 | 33967 ft | 376 kts | 211° |
| 2026-05-07 03:36 | 38.59665 | -80.19747 | 33969 ft | 378 kts | 211° |
| 2026-05-07 03:37 | 38.54591 | -80.21518 | 33973 ft | 378 kts | 211° |
| 2026-05-07 03:37 | 38.49502 | -80.23290 | 33965 ft | 379 kts | 211° |
| 2026-05-07 03:38 | 38.44400 | -80.25062 | 33969 ft | 380 kts | 211° |
| 2026-05-07 03:38 | 38.39323 | -80.26823 | 33959 ft | 381 kts | 211° |
| 2026-05-07 03:39 | 38.34204 | -80.28594 | 33969 ft | 381 kts | 211° |
| 2026-05-07 03:39 | 38.29088 | -80.30364 | 33969 ft | 381 kts | 211° |
| 2026-05-07 03:40 | 38.23976 | -80.32130 | 33956 ft | 380 kts | 211° |
| 2026-05-07 03:40 | 38.18904 | -80.33882 | 33964 ft | 380 kts | 211° |
| 2026-05-07 03:41 | 38.13801 | -80.35640 | 33969 ft | 380 kts | 211° |
| 2026-05-07 03:41 | 38.08706 | -80.37393 | 33980 ft | 379 kts | 211° |
| 2026-05-07 03:42 | 38.03619 | -80.39139 | 33985 ft | 378 kts | 211° |
| 2026-05-07 03:42 | 37.98547 | -80.40885 | 33998 ft | 378 kts | 211° |
| 2026-05-07 03:43 | 37.93509 | -80.42611 | 33962 ft | 378 kts | 211° |
| 2026-05-07 03:43 | 37.88441 | -80.44346 | 33959 ft | 377 kts | 211° |
| 2026-05-07 03:44 | 37.83377 | -80.46076 | 33961 ft | 377 kts | 211° |
| 2026-05-07 03:44 | 37.78324 | -80.47801 | 33960 ft | 376 kts | 211° |
| 2026-05-07 03:45 | 37.73301 | -80.49511 | 33954 ft | 376 kts | 211° |
| 2026-05-07 03:45 | 37.68245 | -80.51230 | 33956 ft | 377 kts | 210° |
| 2026-05-07 03:46 | 37.63177 | -80.52954 | 33952 ft | 377 kts | 210° |
| 2026-05-07 03:46 | 37.58101 | -80.54679 | 33952 ft | 378 kts | 210° |
| 2026-05-07 03:47 | 37.53011 | -80.56404 | 33948 ft | 379 kts | 210° |
| 2026-05-07 03:47 | 37.47946 | -80.58117 | 33958 ft | 380 kts | 210° |
| 2026-05-07 03:48 | 37.42837 | -80.59844 | 33962 ft | 381 kts | 210° |
| 2026-05-07 03:48 | 37.37709 | -80.61576 | 33969 ft | 382 kts | 210° |
| 2026-05-07 03:49 | 37.32567 | -80.63309 | 33961 ft | 383 kts | 209° |
| 2026-05-07 03:49 | 37.27445 | -80.65031 | 33963 ft | 384 kts | 209° |
| 2026-05-07 03:50 | 37.22270 | -80.66770 | 33967 ft | 385 kts | 209° |
| 2026-05-07 03:50 | 37.17093 | -80.68507 | 33972 ft | 386 kts | 209° |
| 2026-05-07 03:51 | 37.11893 | -80.70248 | 33972 ft | 388 kts | 208° |
| 2026-05-07 03:51 | 37.09211 | -80.70927 | 33969 ft | 400 kts | 202° |
| 2026-05-07 03:51 | 37.06392 | -80.71194 | 33968 ft | 411 kts | 197° |
| 2026-05-07 03:52 | 37.00652 | -80.71213 | 33964 ft | 418 kts | 193° |
| 2026-05-07 03:52 | 36.94815 | -80.71033 | 33960 ft | 421 kts | 193° |
| 2026-05-07 03:53 | 36.88957 | -80.70847 | 33985 ft | 421 kts | 193° |
| 2026-05-07 03:53 | 36.83099 | -80.70693 | 33994 ft | 421 kts | 193° |
| 2026-05-07 03:54 | 36.77280 | -80.70552 | 33997 ft | 422 kts | 194° |
| 2026-05-07 03:54 | 36.71408 | -80.70416 | 33992 ft | 422 kts | 194° |
| 2026-05-07 03:55 | 36.65533 | -80.70281 | 33979 ft | 422 kts | 194° |
| 2026-05-07 03:55 | 36.59646 | -80.70143 | 33962 ft | 424 kts | 194° |
| 2026-05-07 03:56 | 36.53754 | -80.70004 | 33971 ft | 423 kts | 194° |
| 2026-05-07 03:56 | 36.47875 | -80.69867 | 33974 ft | 422 kts | 194° |
| 2026-05-07 03:57 | 36.42041 | -80.69732 | 33974 ft | 422 kts | 194° |
| 2026-05-07 03:57 | 36.36166 | -80.69598 | 33970 ft | 422 kts | 194° |
| 2026-05-07 03:58 | 36.30295 | -80.69463 | 33959 ft | 422 kts | 194° |
| 2026-05-07 03:58 | 36.24413 | -80.69328 | 33948 ft | 423 kts | 194° |
| 2026-05-07 03:59 | 36.18572 | -80.69192 | 33936 ft | 423 kts | 195° |
| 2026-05-07 03:59 | 36.12695 | -80.69056 | 33930 ft | 423 kts | 195° |
| 2026-05-07 04:00 | 36.06814 | -80.68921 | 33924 ft | 423 kts | 194° |
| 2026-05-07 04:00 | 36.00923 | -80.68787 | 33928 ft | 424 kts | 194° |
| 2026-05-07 04:01 | 35.95031 | -80.68653 | 33940 ft | 423 kts | 194° |
| 2026-05-07 04:01 | 35.89139 | -80.68517 | 33948 ft | 424 kts | 194° |
| 2026-05-07 04:02 | 35.83304 | -80.68499 | 33957 ft | 421 kts | 196° |
| 2026-05-07 04:02 | 35.77446 | -80.68663 | 33941 ft | 421 kts | 196° |
| 2026-05-07 04:03 | 35.71564 | -80.68832 | 33940 ft | 424 kts | 195° |
| 2026-05-07 04:03 | 35.65659 | -80.68969 | 33940 ft | 426 kts | 195° |
| 2026-05-07 04:04 | 35.59722 | -80.69090 | 33944 ft | 427 kts | 194° |
| 2026-05-07 04:04 | 35.53760 | -80.69209 | 33998 ft | 430 kts | 194° |
| 2026-05-07 04:05 | 35.47792 | -80.69331 | 34015 ft | 433 kts | 193° |
| 2026-05-07 04:05 | 35.41750 | -80.69454 | 34013 ft | 436 kts | 193° |
| 2026-05-07 04:06 | 35.35658 | -80.69577 | 34013 ft | 439 kts | 192° |
| 2026-05-07 04:06 | 35.29524 | -80.69700 | 34015 ft | 442 kts | 192° |
| 2026-05-07 04:07 | 35.23401 | -80.69821 | 34002 ft | 444 kts | 192° |
| 2026-05-07 04:07 | 35.17221 | -80.69943 | 33995 ft | 445 kts | 192° |
| 2026-05-07 04:08 | 35.11022 | -80.70067 | 33996 ft | 446 kts | 192° |
| 2026-05-07 04:08 | 35.04808 | -80.70191 | 33999 ft | 447 kts | 192° |
| 2026-05-07 04:09 | 34.98576 | -80.70316 | 33996 ft | 448 kts | 192° |
| 2026-05-07 04:09 | 34.92372 | -80.70440 | 33994 ft | 450 kts | 192° |
| 2026-05-07 04:10 | 34.86114 | -80.70565 | 33988 ft | 451 kts | 191° |
| 2026-05-07 04:10 | 34.79836 | -80.70691 | 34007 ft | 452 kts | 191° |
| 2026-05-07 04:11 | 34.73548 | -80.70816 | 34009 ft | 452 kts | 191° |
| 2026-05-07 04:11 | 34.67295 | -80.70938 | 34008 ft | 452 kts | 191° |
| 2026-05-07 04:12 | 34.61000 | -80.71061 | 34004 ft | 452 kts | 191° |
| 2026-05-07 04:12 | 34.54708 | -80.71185 | 33998 ft | 452 kts | 191° |
| 2026-05-07 04:13 | 34.48421 | -80.71310 | 33994 ft | 452 kts | 191° |
| 2026-05-07 04:13 | 34.42185 | -80.71434 | 34006 ft | 451 kts | 191° |
| 2026-05-07 04:14 | 34.35905 | -80.71558 | 34014 ft | 451 kts | 191° |
| 2026-05-07 04:14 | 34.29629 | -80.71681 | 34017 ft | 451 kts | 190° |
| 2026-05-07 04:15 | 34.23358 | -80.71804 | 34015 ft | 451 kts | 190° |
| 2026-05-07 04:15 | 34.17086 | -80.71928 | 34010 ft | 450 kts | 190° |
| 2026-05-07 04:16 | 34.10860 | -80.72051 | 33997 ft | 451 kts | 190° |
| 2026-05-07 04:16 | 34.04584 | -80.72173 | 34015 ft | 451 kts | 190° |
| 2026-05-07 04:17 | 33.98303 | -80.72296 | 34021 ft | 452 kts | 190° |
| 2026-05-07 04:17 | 33.92019 | -80.72418 | 34024 ft | 452 kts | 190° |
| 2026-05-07 04:18 | 33.85766 | -80.72540 | 34023 ft | 453 kts | 190° |
| 2026-05-07 04:18 | 33.79458 | -80.72664 | 34014 ft | 454 kts | 190° |
| 2026-05-07 04:19 | 33.73129 | -80.72788 | 34004 ft | 455 kts | 190° |
| 2026-05-07 04:19 | 33.66782 | -80.72911 | 33990 ft | 457 kts | 190° |
| 2026-05-07 04:20 | 33.60455 | -80.73034 | 33994 ft | 458 kts | 190° |
| 2026-05-07 04:20 | 33.54077 | -80.73163 | 34002 ft | 458 kts | 191° |
| 2026-05-07 04:21 | 33.47886 | -80.74277 | 34007 ft | 446 kts | 201° |
| 2026-05-07 04:21 | 33.44860 | -80.75095 | 34012 ft | 446 kts | 202° |
| 2026-05-07 04:21 | 33.38838 | -80.76864 | 34000 ft | 446 kts | 203° |
| 2026-05-07 04:22 | 33.32851 | -80.78660 | 33980 ft | 445 kts | 202° |
| 2026-05-07 04:22 | 33.26915 | -80.80409 | 33999 ft | 436 kts | 202° |
| 2026-05-07 04:23 | 33.21034 | -80.82133 | 33997 ft | 435 kts | 202° |
| 2026-05-07 04:23 | 33.15158 | -80.83855 | 34001 ft | 435 kts | 201° |
| 2026-05-07 04:24 | 33.09318 | -80.85561 | 34009 ft | 435 kts | 201° |
| 2026-05-07 04:24 | 33.03439 | -80.87274 | 34011 ft | 435 kts | 201° |
| 2026-05-07 04:25 | 32.97561 | -80.88984 | 34013 ft | 435 kts | 201° |
| 2026-05-07 04:25 | 32.91682 | -80.90693 | 34014 ft | 435 kts | 201° |
| 2026-05-07 04:26 | 32.85793 | -80.92403 | 34009 ft | 436 kts | 201° |
| 2026-05-07 04:26 | 32.79945 | -80.94098 | 34005 ft | 436 kts | 201° |
| 2026-05-07 04:27 | 32.74050 | -80.95805 | 33994 ft | 436 kts | 201° |
| 2026-05-07 04:27 | 32.68158 | -80.97508 | 34000 ft | 436 kts | 201° |
| 2026-05-07 04:28 | 32.62259 | -80.99211 | 34002 ft | 436 kts | 201° |
| 2026-05-07 04:28 | 32.56358 | -81.00913 | 34006 ft | 437 kts | 201° |
| 2026-05-07 04:29 | 32.50301 | -81.01897 | 34009 ft | 448 kts | 191° |
| 2026-05-07 04:29 | 32.44044 | -81.02128 | 34006 ft | 451 kts | 189° |
| 2026-05-07 04:30 | 32.37755 | -81.02210 | 34006 ft | 452 kts | 188° |
| 2026-05-07 04:30 | 32.31471 | -81.02286 | 34002 ft | 452 kts | 188° |
| 2026-05-07 04:31 | 32.25219 | -81.02384 | 34009 ft | 452 kts | 189° |
| 2026-05-07 04:31 | 32.18933 | -81.02494 | 34009 ft | 453 kts | 189° |
| 2026-05-07 04:32 | 32.12630 | -81.02607 | 34012 ft | 453 kts | 189° |
| 2026-05-07 04:32 | 32.06324 | -81.02720 | 33987 ft | 454 kts | 189° |
| 2026-05-07 04:33 | 32.00050 | -81.02833 | 33987 ft | 454 kts | 189° |
| 2026-05-07 04:33 | 31.93727 | -81.02988 | 33988 ft | 455 kts | 189° |
| 2026-05-07 04:34 | 31.87390 | -81.03168 | 33986 ft | 456 kts | 189° |
| 2026-05-07 04:34 | 31.81050 | -81.03348 | 33996 ft | 456 kts | 189° |
| 2026-05-07 04:35 | 31.74743 | -81.03521 | 33998 ft | 457 kts | 189° |
| 2026-05-07 04:35 | 31.68382 | -81.03694 | 34005 ft | 457 kts | 189° |
| 2026-05-07 04:36 | 31.62025 | -81.03941 | 34014 ft | 453 kts | 194° |
| 2026-05-07 04:36 | 31.56055 | -81.05685 | 34013 ft | 434 kts | 211° |
| 2026-05-07 04:37 | 31.50633 | -81.08731 | 34016 ft | 430 kts | 214° |
| 2026-05-07 04:37 | 31.45395 | -81.11975 | 34020 ft | 428 kts | 216° |
| 2026-05-07 04:38 | 31.40136 | -81.15259 | 34028 ft | 429 kts | 215° |
| 2026-05-07 04:38 | 31.34852 | -81.18481 | 34033 ft | 430 kts | 214° |
| 2026-05-07 04:39 | 31.29518 | -81.21650 | 34028 ft | 430 kts | 214° |
| 2026-05-07 04:39 | 31.24208 | -81.24787 | 34027 ft | 430 kts | 214° |
| 2026-05-07 04:40 | 31.18639 | -81.27497 | 34023 ft | 443 kts | 202° |
| 2026-05-07 04:40 | 31.15568 | -81.28123 | 34025 ft | 454 kts | 192° |
| 2026-05-07 04:40 | 31.12395 | -81.28264 | 34027 ft | 459 kts | 188° |
| 2026-05-07 04:41 | 31.05990 | -81.28255 | 34028 ft | 461 kts | 187° |
| 2026-05-07 04:41 | 30.99614 | -81.28225 | 34029 ft | 462 kts | 187° |
| 2026-05-07 04:42 | 30.93183 | -81.28203 | 34035 ft | 462 kts | 187° |
| 2026-05-07 04:42 | 30.86750 | -81.28185 | 34041 ft | 462 kts | 187° |
| 2026-05-07 04:43 | 30.80310 | -81.28168 | 34047 ft | 463 kts | 188° |
| 2026-05-07 04:43 | 30.73871 | -81.28152 | 34050 ft | 463 kts | 188° |
| 2026-05-07 04:44 | 30.67476 | -81.28136 | 34046 ft | 463 kts | 188° |
| 2026-05-07 04:44 | 30.61030 | -81.28116 | 34051 ft | 464 kts | 187° |
| 2026-05-07 04:45 | 30.54550 | -81.27717 | 34051 ft | 468 kts | 184° |
| 2026-05-07 04:45 | 30.48058 | -81.27210 | 34059 ft | 468 kts | 184° |
| 2026-05-07 04:46 | 30.41550 | -81.26720 | 34061 ft | 471 kts | 184° |
| 2026-05-07 04:46 | 30.35015 | -81.26231 | 34063 ft | 475 kts | 184° |
| 2026-05-07 04:47 | 30.28418 | -81.25734 | 34060 ft | 476 kts | 184° |
| 2026-05-07 04:47 | 30.21809 | -81.25237 | 33897 ft | 476 kts | 184° |
| 2026-05-07 04:48 | 30.18512 | -81.24988 | 33393 ft | 474 kts | 184° |
| 2026-05-07 04:48 | 30.15214 | -81.24741 | 32659 ft | 475 kts | 184° |
| 2026-05-07 04:48 | 30.11957 | -81.24497 | 31928 ft | 476 kts | 184° |
| 2026-05-07 04:48 | 30.08642 | -81.24250 | 31156 ft | 478 kts | 185° |
| 2026-05-07 04:49 | 30.05315 | -81.24002 | 30390 ft | 480 kts | 185° |
| 2026-05-07 04:49 | 30.01983 | -81.23753 | 29490 ft | 482 kts | 185° |
| 2026-05-07 04:49 | 29.98635 | -81.23504 | 28605 ft | 482 kts | 184° |
| 2026-05-07 04:49 | 29.95287 | -81.23254 | 27780 ft | 482 kts | 184° |
| 2026-05-07 04:50 | 29.91958 | -81.23002 | 27201 ft | 476 kts | 184° |
| 2026-05-07 04:50 | 29.88668 | -81.22754 | 26600 ft | 471 kts | 184° |
| 2026-05-07 04:50 | 29.85407 | -81.22510 | 25972 ft | 467 kts | 184° |
| 2026-05-07 04:50 | 29.82218 | -81.22272 | 25346 ft | 464 kts | 184° |
| 2026-05-07 04:51 | 29.79010 | -81.22033 | 24726 ft | 461 kts | 184° |
| 2026-05-07 04:51 | 29.75823 | -81.21797 | 24125 ft | 457 kts | 183° |
| 2026-05-07 04:51 | 29.72665 | -81.21562 | 23476 ft | 454 kts | 183° |
| 2026-05-07 04:51 | 29.69520 | -81.21317 | 22793 ft | 450 kts | 182° |
| 2026-05-07 04:52 | 29.66412 | -81.21052 | 22160 ft | 445 kts | 182° |
| 2026-05-07 04:52 | 29.63345 | -81.20787 | 21539 ft | 440 kts | 181° |
| 2026-05-07 04:52 | 29.60312 | -81.20526 | 20926 ft | 435 kts | 181° |
| 2026-05-07 04:52 | 29.57314 | -81.20269 | 20318 ft | 430 kts | 181° |
| 2026-05-07 04:53 | 29.54387 | -81.20018 | 19725 ft | 425 kts | 180° |
| 2026-05-07 04:53 | 29.51453 | -81.19767 | 19060 ft | 422 kts | 180° |
| 2026-05-07 04:53 | 29.48534 | -81.19519 | 18419 ft | 419 kts | 180° |
| 2026-05-07 04:53 | 29.45630 | -81.19271 | 17740 ft | 415 kts | 179° |
| 2026-05-07 04:54 | 29.42775 | -81.19026 | 17160 ft | 408 kts | 179° |
| 2026-05-07 04:54 | 29.39965 | -81.18785 | 16589 ft | 402 kts | 179° |
| 2026-05-07 04:54 | 29.37193 | -81.18548 | 15989 ft | 397 kts | 179° |
| 2026-05-07 04:54 | 29.34470 | -81.18315 | 15726 ft | 384 kts | 179° |
| 2026-05-07 04:55 | 29.31866 | -81.18090 | 15613 ft | 367 kts | 179° |
| 2026-05-07 04:55 | 29.29391 | -81.17877 | 15284 ft | 359 kts | 179° |
| 2026-05-07 04:55 | 29.26911 | -81.17662 | 14818 ft | 356 kts | 178° |
| 2026-05-07 04:55 | 29.24471 | -81.17448 | 14553 ft | 351 kts | 178° |
| 2026-05-07 04:56 | 29.22035 | -81.17234 | 14305 ft | 348 kts | 178° |
| 2026-05-07 04:56 | 29.19632 | -81.16996 | 13852 ft | 348 kts | 174° |
| 2026-05-07 04:56 | 29.17285 | -81.16312 | 13394 ft | 348 kts | 163° |
| 2026-05-07 04:56 | 29.15013 | -81.15380 | 12928 ft | 346 kts | 161° |
| 2026-05-07 04:57 | 29.12759 | -81.14408 | 12431 ft | 345 kts | 161° |
| 2026-05-07 04:57 | 29.10562 | -81.13458 | 12152 ft | 336 kts | 161° |
| 2026-05-07 04:57 | 29.08423 | -81.12535 | 12024 ft | 322 kts | 161° |
| 2026-05-07 04:57 | 29.06371 | -81.11654 | 11842 ft | 311 kts | 161° |
| 2026-05-07 04:58 | 29.04343 | -81.10809 | 11382 ft | 310 kts | 163° |
| 2026-05-07 04:58 | 29.02309 | -81.10022 | 10979 ft | 307 kts | 163° |
| 2026-05-07 04:58 | 29.00289 | -81.09260 | 10568 ft | 305 kts | 165° |
| 2026-05-07 04:58 | 28.98215 | -81.08882 | 10187 ft | 299 kts | 184° |
| 2026-05-07 04:59 | 28.96240 | -81.09443 | 9836 ft | 291 kts | 209° |
| 2026-05-07 04:59 | 28.94615 | -81.10706 | 9536 ft | 284 kts | 219° |
| 2026-05-07 04:59 | 28.93095 | -81.12133 | 9188 ft | 282 kts | 220° |
| 2026-05-07 04:59 | 28.91603 | -81.13569 | 8839 ft | 280 kts | 220° |
| 2026-05-07 05:00 | 28.90117 | -81.14992 | 8486 ft | 278 kts | 220° |
| 2026-05-07 05:00 | 28.88638 | -81.16400 | 8141 ft | 276 kts | 219° |
| 2026-05-07 05:00 | 28.87163 | -81.17798 | 7802 ft | 275 kts | 219° |
| 2026-05-07 05:00 | 28.85688 | -81.19180 | 7464 ft | 273 kts | 216° |
| 2026-05-07 05:01 | 28.84082 | -81.20329 | 7125 ft | 272 kts | 209° |
| 2026-05-07 05:01 | 28.82443 | -81.21385 | 6796 ft | 271 kts | 208° |
| 2026-05-07 05:01 | 28.80827 | -81.22422 | 6481 ft | 269 kts | 208° |
| 2026-05-07 05:01 | 28.79231 | -81.23460 | 6316 ft | 258 kts | 208° |
| 2026-05-07 05:02 | 28.77718 | -81.24481 | 6190 ft | 247 kts | 210° |
| 2026-05-07 05:02 | 28.76297 | -81.25483 | 6134 ft | 231 kts | 211° |
| 2026-05-07 05:02 | 28.75016 | -81.26453 | 6128 ft | 213 kts | 213° |
| 2026-05-07 05:02 | 28.73837 | -81.27414 | 5992 ft | 206 kts | 214° |
| 2026-05-07 05:03 | 28.72710 | -81.28367 | 5750 ft | 199 kts | 215° |
| 2026-05-07 05:03 | 28.71544 | -81.29192 | 5457 ft | 196 kts | 205° |
| 2026-05-07 05:03 | 28.70263 | -81.29686 | 5153 ft | 194 kts | 190° |
| 2026-05-07 05:03 | 28.68944 | -81.29819 | 4868 ft | 192 kts | 181° |
| 2026-05-07 05:04 | 28.67621 | -81.29817 | 4605 ft | 189 kts | 180° |
| 2026-05-07 05:04 | 28.66326 | -81.29808 | 4373 ft | 184 kts | 180° |
| 2026-05-07 05:04 | 28.65068 | -81.29799 | 4147 ft | 178 kts | 180° |
| 2026-05-07 05:04 | 28.63849 | -81.29788 | 3932 ft | 172 kts | 180° |
| 2026-05-07 05:05 | 28.62672 | -81.29776 | 3717 ft | 166 kts | 180° |
| 2026-05-07 05:05 | 28.61543 | -81.29765 | 3501 ft | 159 kts | 180° |
| 2026-05-07 05:05 | 28.60466 | -81.29755 | 3312 ft | 151 kts | 180° |
| 2026-05-07 05:05 | 28.59447 | -81.29745 | 3126 ft | 147 kts | 180° |
| 2026-05-07 05:06 | 28.58424 | -81.29734 | 2937 ft | 147 kts | 180° |
| 2026-05-07 05:06 | 28.57409 | -81.29724 | 2742 ft | 145 kts | 180° |
| 2026-05-07 05:06 | 28.56402 | -81.29714 | 2559 ft | 144 kts | 179° |
| 2026-05-07 05:06 | 28.55402 | -81.29704 | 2369 ft | 143 kts | 180° |
| 2026-05-07 05:07 | 28.54409 | -81.29694 | 2187 ft | 142 kts | 179° |
| 2026-05-07 05:07 | 28.53425 | -81.29685 | 2010 ft | 141 kts | 179° |
| 2026-05-07 05:07 | 28.52465 | -81.29675 | 1824 ft | 139 kts | 179° |
| 2026-05-07 05:07 | 28.51501 | -81.29665 | 1670 ft | 136 kts | 179° |
| 2026-05-07 05:08 | 28.50571 | -81.29656 | 1484 ft | 134 kts | 179° |
| 2026-05-07 05:08 | 28.49635 | -81.29647 | 1297 ft | 135 kts | 179° |
| 2026-05-07 05:08 | 28.48697 | -81.29637 | 1128 ft | 135 kts | 179° |
| 2026-05-07 05:08 | 28.47752 | -81.29628 | 948 ft | 135 kts | 179° |
| 2026-05-07 05:09 | 28.46811 | -81.29619 | 776 ft | 135 kts | 179° |
| 2026-05-07 05:09 | 28.45879 | -81.29609 | 585 ft | 135 kts | 179° |
| 2026-05-07 05:09 | 28.44938 | -81.29600 | 414 ft | 135 kts | 179° |
| 2026-05-07 05:09 | 28.44021 | -81.29588 | 250 ft | 132 kts | 179° |
| 2026-05-07 05:10 | 28.43124 | -81.29583 | 127 ft | 117 kts | 180° |
| 2026-05-07 05:10 | 28.42389 | -81.29575 | 103 ft | 91 kts | 179° |
| 2026-05-07 05:10 | 28.41935 | -81.29572 | 106 ft | 41 kts | 180° |
| 2026-05-07 05:10 | 28.41672 | -81.29569 | 108 ft | 26 kts | 181° |
| 2026-05-07 05:11 | 28.41543 | -81.29596 | 108 ft | 18 kts | 200° |
| 2026-05-07 05:11 | 28.41480 | -81.29661 | 107 ft | 11 kts | 262° |
| 2026-05-07 05:11 | 28.41459 | -81.29741 | 105 ft | 11 kts | 268° |
| 2026-05-07 05:11 | 28.41509 | -81.29784 | 105 ft | 9 kts | 354° |
| 2026-05-07 05:12 | 28.41569 | -81.29784 | 105 ft | 10 kts | 0° |
| 2026-05-07 05:12 | 28.41662 | -81.29786 | 105 ft | 16 kts | 359° |
| 2026-05-07 05:12 | 28.41775 | -81.29788 | 105 ft | 16 kts | 359° |
| 2026-05-07 05:12 | 28.41889 | -81.29790 | 105 ft | 16 kts | 1° |
| 2026-05-07 05:13 | 28.42003 | -81.29788 | 105 ft | 16 kts | 0° |
| 2026-05-07 05:13 | 28.42118 | -81.29790 | 105 ft | 17 kts | 359° |
| 2026-05-07 05:13 | 28.42234 | -81.29793 | 105 ft | 17 kts | 358° |
| 2026-05-07 05:13 | 28.42349 | -81.29794 | 105 ft | 17 kts | 4° |
| 2026-05-07 05:14 | 28.42462 | -81.29794 | 105 ft | 16 kts | 358° |
| 2026-05-07 05:14 | 28.42566 | -81.29797 | 106 ft | 14 kts | 349° |
| 2026-05-07 05:14 | 28.42618 | -81.29876 | 106 ft | 12 kts | 322° |
| 2026-05-07 05:14 | 28.42658 | -81.29942 | 106 ft | 5 kts | 244° |
| 2026-05-07 05:15 | 28.42635 | -81.29974 | 106 ft | 5 kts | 236° |
| 2026-05-07 05:15 | 28.42618 | -81.30009 | 106 ft | 4 kts | 241° |
| 2026-05-07 05:15 | 28.42615 | -81.30014 | 105 ft | 0 kts | 241° |